Time;durP1;ratioP1;P1;durP2;ratioP2;P2;SDS_P1;SDS_P2;PMS_P1;PMS_P2;Temp;Humidity;BMP_temperature;BMP_pressure;BME280_temperature;BME280_humidity;BME280_pressure;Samples;Min_cycle;Max_cycle;Signal;HPM_P1;HPM_P2
2022/01/15 00:00:35;;;;;;;39.17;6.60;;;;;;;0.58;100.00;103025.72;5091995;28;20173;-42
2022/01/15 00:03:03;;;;;;;35.35;6.47;;;;;;;0.63;100.00;103033.81;5092458;28;20564;-42
2022/01/15 00:05:30;;;;;;;35.65;7.30;;;;;;;0.62;100.00;103034.66;5091634;28;20566;-40
2022/01/15 00:07:55;;;;;;;25.80;5.38;;;;;;;0.65;100.00;103036.50;5092045;28;20190;-40
2022/01/15 00:10:25;;;;;;;30.65;6.00;;;;;;;0.60;100.00;103010.84;5090465;28;20223;-41
2022/01/15 00:12:51;;;;;;;37.45;5.80;;;;;;;0.61;100.00;102996.84;5092310;28;20193;-40
2022/01/15 00:15:23;;;;;;;38.15;5.75;;;;;;;0.50;100.00;102997.25;5091841;28;20209;-42
2022/01/15 00:17:55;;;;;;;31.48;5.72;;;;;;;0.53;100.00;103002.66;5091525;28;20218;-38
2022/01/15 00:20:20;;;;;;;32.97;5.93;;;;;;;0.50;100.00;103010.44;5091973;28;20233;-40
2022/01/15 00:22:47;;;;;;;30.15;5.82;;;;;;;0.55;100.00;103015.06;5091621;28;20192;-41
2022/01/15 00:25:13;;;;;;;29.63;5.55;;;;;;;0.55;100.00;103015.06;5091636;28;20539;-39
2022/01/15 00:27:39;;;;;;;35.53;6.25;;;;;;;0.45;100.00;103002.34;5091348;28;20185;-38
2022/01/15 00:30:06;;;;;;;33.38;5.32;;;;;;;0.37;100.00;102987.97;5091530;28;20170;-39
2022/01/15 00:32:31;;;;;;;33.70;5.88;;;;;;;0.37;100.00;102980.97;5106195;28;20196;-42
2022/01/15 00:34:57;;;;;;;33.50;6.13;;;;;;;0.45;100.00;102990.91;5111685;28;20252;-41
2022/01/15 00:37:23;;;;;;;31.65;6.13;;;;;;;0.51;100.00;103001.69;5112080;28;20244;-40
2022/01/15 00:39:48;;;;;;;30.02;5.47;;;;;;;0.51;100.00;102999.97;5111540;28;20201;-39
2022/01/15 00:42:14;;;;;;;30.83;5.47;;;;;;;0.61;100.00;103015.31;5111856;28;20541;-38
2022/01/15 00:44:41;;;;;;;29.77;5.55;;;;;;;0.52;100.00;103011.41;5111742;28;20173;-40
2022/01/15 00:47:07;;;;;;;35.35;5.85;;;;;;;0.55;100.00;103015.06;5111267;28;20618;-41
2022/01/15 00:49:32;;;;;;;31.25;5.53;;;;;;;0.62;100.00;103010.91;5111672;28;20189;-40
2022/01/15 00:51:58;;;;;;;23.73;4.50;;;;;;;0.48;100.00;102991.03;5109617;28;20246;-42
2022/01/15 00:54:23;;;;;;;33.85;5.43;;;;;;;0.49;100.00;102979.66;5111720;28;20169;-41
2022/01/15 00:56:48;;;;;;;27.80;5.00;;;;;;;0.42;100.00;102986.44;5110998;28;20209;-40
2022/01/15 00:59:17;;;;;;;24.30;5.20;;;;;;;0.41;100.00;102989.88;5111688;28;20169;-41
2022/01/15 01:01:42;;;;;;;24.40;4.07;;;;;;;0.43;100.00;102982.94;5111285;28;20169;-42
2022/01/15 01:04:08;;;;;;;39.03;5.60;;;;;;;0.46;100.00;102992.69;5111381;28;20619;-42
2022/01/15 01:06:33;;;;;;;22.58;4.55;;;;;;;0.45;100.00;102997.06;5111117;28;20272;-42
2022/01/15 01:08:59;;;;;;;35.38;4.93;;;;;;;0.44;100.00;102990.03;5110028;28;20193;-43
2022/01/15 01:11:43;;;;;;;37.15;4.85;;;;;;;0.48;100.00;102978.75;5111252;28;20545;-41
2022/01/15 01:22:52;;;;;;;31.27;5.20;;;;;;;0.38;100.00;102969.56;5111388;28;20169;-44
2022/01/15 01:24:59;;;;;;;38.13;5.15;;;;;;;0.42;100.00;102970.59;5110563;28;20173;-45
2022/01/15 01:27:29;;;;;;;24.95;4.85;;;;;;;0.42;100.00;102975.88;5110451;28;20179;-43
2022/01/15 01:35:13;;;;;;;32.13;5.07;;;;;;;0.22;100.00;102964.56;5110821;28;20200;-44
2022/01/15 01:37:44;;;;;;;23.90;5.38;;;;;;;0.19;100.00;102961.78;5110285;28;20167;-43
2022/01/15 01:40:36;;;;;;;25.33;4.85;;;;;;;0.15;100.00;102960.81;5110845;28;20226;-43
2022/01/15 01:43:27;;;;;;;36.80;5.18;;;;;;;0.18;100.00;102954.75;5110405;28;20164;-44
2022/01/15 01:45:54;;;;;;;36.00;5.07;;;;;;;0.22;100.00;102964.56;5110173;28;20547;-43
2022/01/15 01:48:19;;;;;;;28.85;5.18;;;;;;;0.20;100.00;102972.41;5110382;28;20198;-42
2022/01/15 01:50:45;;;;;;;30.10;5.05;;;;;;;0.20;100.00;102976.78;5110941;28;20177;-44
2022/01/15 01:53:11;;;;;;;30.17;5.47;;;;;;;0.19;100.00;102972.34;5109226;28;20178;-46
2022/01/15 01:55:36;;;;;;;33.88;6.45;;;;;;;0.22;100.00;102961.94;5109961;28;20337;-43
2022/01/15 01:58:02;;;;;;;24.20;5.13;;;;;;;0.33;100.00;102963.25;5110719;28;20157;-45
2022/01/15 02:00:29;;;;;;;43.17;7.30;;;;;;;0.22;100.00;102940.84;5110232;28;20185;-43
2022/01/15 02:02:56;;;;;;;31.33;4.85;;;;;;;0.20;100.00;102947.78;5110309;28;20199;-44
2022/01/15 02:05:22;;;;;;;32.85;5.28;;;;;;;0.35;100.00;102953.66;5113620;28;20198;-45
2022/01/15 02:07:48;;;;;;;27.98;5.50;;;;;;;0.32;100.00;102957.91;5114384;28;20301;-44
2022/01/15 02:10:17;;;;;;;34.58;6.25;;;;;;;0.21;100.00;102944.31;5114597;28;20182;-46
2022/01/15 02:12:43;;;;;;;31.13;5.22;;;;;;;0.24;100.00;102938.25;5114325;28;20238;-42
2022/01/15 02:15:12;;;;;;;34.05;5.72;;;;;;;0.18;100.00;102936.28;5114288;28;20204;-43
2022/01/15 02:17:42;;;;;;;32.15;6.00;;;;;;;0.17;100.00;102927.47;5113479;28;20522;-43
2022/01/15 02:25:49;;;;;;;34.05;5.55;;;;;;;0.15;100.00;102937.06;5113600;28;20208;-44
2022/01/15 02:28:16;;;;;;;36.47;5.47;;;;;;;0.15;100.00;102944.06;5114169;28;20205;-44
2022/01/15 02:30:42;;;;;;;40.85;5.68;;;;;;;0.15;100.00;102929.16;5114513;28;20614;-44
2022/01/15 02:33:07;;;;;;;32.83;5.57;;;;;;;0.13;100.00;102922.94;5114175;28;20170;-43
2022/01/15 02:35:34;;;;;;;32.70;5.40;;;;;;;0.13;100.00;102924.66;5113490;28;20678;-41
2022/01/15 02:38:08;;;;;;;30.33;5.38;;;;;;;0.15;100.00;102934.44;5113109;28;20172;-42
2022/01/15 02:40:35;;;;;;;37.22;4.93;;;;;;;0.12;100.00;102933.41;5114030;28;20175;-42
2022/01/15 02:43:14;;;;;;;29.27;4.70;;;;;;;0.10;100.00;102943.00;5114678;28;20169;-44
2022/01/15 02:45:57;;;;;;;23.25;4.43;;;;;;;0.23;100.00;102942.63;5113873;28;20290;-42
2022/01/15 02:48:28;;;;;;;21.73;4.35;;;;;;;0.13;100.00;102929.91;5101732;28;20251;-42
2022/01/15 02:50:56;;;;;;;41.92;5.10;;;;;;;0.15;100.00;102925.59;5114009;28;20223;-40
2022/01/15 02:53:22;;;;;;;23.73;5.07;;;;;;;0.09;100.00;102915.75;5113676;28;20493;-43
2022/01/15 02:55:51;;;;;;;28.08;5.20;;;;;;;0.15;100.00;102918.63;5113466;28;20280;-41
2022/01/15 02:58:19;;;;;;;28.13;4.93;;;;;;;0.16;100.00;102920.41;5113681;28;20164;-41
2022/01/15 03:00:45;;;;;;;37.35;5.50;;;;;;;0.20;100.00;102918.78;5113591;28;20234;-43
2022/01/15 03:03:11;;;;;;;37.78;5.13;;;;;;;0.18;100.00;102923.13;5113794;28;20177;-43
2022/01/15 03:05:36;;;;;;;32.53;5.50;;;;;;;0.18;100.00;102925.75;5113417;28;20189;-43
2022/01/15 03:08:02;;;;;;;22.02;4.32;;;;;;;0.15;100.00;102923.91;5113365;28;20185;-42
2022/01/15 03:10:27;;;;;;;37.28;5.90;;;;;;;0.12;100.00;102913.22;5113554;28;20166;-42
2022/01/15 03:12:54;;;;;;;26.58;4.50;;;;;;;0.11;100.00;102897.34;5113884;27;20238;-40
2022/01/15 03:15:20;;;;;;;26.75;4.15;;;;;;;0.04;100.00;102900.59;5113173;28;20208;-40
2022/01/15 03:17:47;;;;;;;38.00;6.28;;;;;;;0.08;100.00;102891.97;5112957;28;20178;-42
2022/01/15 03:20:14;;;;;;;32.08;5.13;;;;;;;0.13;100.00;102903.56;5113396;28;20665;-47
2022/01/15 03:22:40;;;;;;;34.05;5.75;;;;;;;0.17;100.00;102913.38;5112211;28;20242;-47
2022/01/15 03:25:06;;;;;;;32.97;4.85;;;;;;;0.17;100.00;102908.13;5113494;28;20189;-47
2022/01/15 03:27:32;;;;;;;36.30;5.38;;;;;;;0.19;100.00;102909.06;5094226;28;20177;-44
2022/01/15 03:29:58;;;;;;;26.40;4.32;;;;;;;0.22;100.00;102903.94;5113283;28;20256;-47
2022/01/15 03:32:23;;;;;;;24.40;5.25;;;;;;;0.27;100.00;102896.19;5098835;28;20178;-45
2022/01/15 03:34:49;;;;;;;35.08;5.10;;;;;;;0.27;100.00;102894.44;5092719;28;20548;-45
2022/01/15 03:37:15;;;;;;;27.15;4.90;;;;;;;0.20;100.00;102890.69;5091825;28;20170;-44
2022/01/15 03:39:41;;;;;;;21.45;4.82;;;;;;;0.24;100.00;102883.81;5092402;28;20182;-46
2022/01/15 03:42:12;;;;;;;31.13;4.70;;;;;;;0.29;100.00;102882.22;5092278;28;20181;-44
2022/01/15 03:44:42;;;;;;;30.48;4.63;;;;;;;0.38;100.00;102886.94;5092398;28;20180;-45
2022/01/15 03:47:09;;;;;;;31.83;5.35;;;;;;;0.48;100.00;102885.53;5092094;28;20193;-43
2022/01/15 03:49:34;;;;;;;34.60;5.65;;;;;;;0.53;100.00;102883.97;5092127;28;20284;-43
2022/01/15 03:52:00;;;;;;;38.75;5.57;;;;;;;0.47;100.00;102875.84;5092405;28;20198;-46
2022/01/15 03:54:25;;;;;;;25.95;4.70;;;;;;;0.47;100.00;102863.53;5092137;28;20197;-43
2022/01/15 03:56:51;;;;;;;39.80;5.93;;;;;;;0.51;100.00;102875.09;5091658;28;20259;-42
2022/01/15 03:59:17;;;;;;;30.58;5.15;;;;;;;0.56;100.00;102860.34;5092482;28;20166;-41
2022/01/15 04:01:42;;;;;;;30.50;4.75;;;;;;;0.55;100.00;102872.63;5092233;28;20261;-43
2022/01/15 04:04:08;;;;;;;26.23;4.47;;;;;;;0.63;100.00;102870.25;5092060;28;20162;-44
2022/01/15 04:06:33;;;;;;;31.52;4.57;;;;;;;0.71;100.00;102858.25;5091786;28;20189;-42
2022/01/15 04:08:59;;;;;;;22.13;4.95;;;;;;;0.65;100.00;102871.22;5092074;28;20271;-45
2022/01/15 04:11:24;;;;;;;28.08;4.20;;;;;;;0.74;100.00;102887.34;5091907;28;20166;-42
2022/01/15 04:13:50;;;;;;;25.77;4.88;;;;;;;0.77;100.00;102886.59;5092133;28;20158;-46
2022/01/15 04:16:15;;;;;;;24.50;5.10;;;;;;;0.82;100.00;102891.16;5091734;28;20201;-40
2022/01/15 04:18:41;;;;;;;26.10;4.82;;;;;;;0.83;100.00;102881.50;5091993;28;20598;-43
2022/01/15 04:21:09;;;;;;;23.17;4.47;;;;;;;0.81;100.00;102876.19;5095520;28;20205;-44
2022/01/15 04:23:36;;;;;;;31.45;4.60;;;;;;;0.81;100.00;102872.66;5111092;28;20185;-44
2022/01/15 04:26:03;;;;;;;26.00;4.32;;;;;;;0.78;100.00;102877.81;5111851;28;20193;-46
2022/01/15 04:28:29;;;;;;;24.30;4.65;;;;;;;0.81;100.00;102878.84;5112179;28;20185;-41
2022/01/15 04:30:54;;;;;;;26.98;5.05;;;;;;;0.85;100.00;102886.84;5110942;28;20177;-41
2022/01/15 04:33:20;;;;;;;29.38;4.55;;;;;;;0.87;100.00;102885.16;5092181;28;20221;-42
2022/01/15 04:35:45;;;;;;;28.10;3.95;;;;;;;0.89;100.00;102887.00;5091867;28;20217;-42
2022/01/15 04:38:13;;;;;;;32.80;5.38;;;;;;;0.82;100.00;102883.25;5092374;28;20163;-43
2022/01/15 04:40:38;;;;;;;19.67;5.32;;;;;;;0.81;100.00;102878.84;5091640;28;20158;-44
2022/01/15 04:43:04;;;;;;;20.73;4.00;;;;;;;0.82;100.00;102877.09;5092159;28;20176;-42
2022/01/15 04:45:29;;;;;;;29.13;4.78;;;;;;;0.78;100.00;102876.06;5091928;28;20201;-44
2022/01/15 04:47:55;;;;;;;23.40;5.13;;;;;;;0.82;100.00;102882.38;5094567;28;20188;-43
2022/01/15 04:50:21;;;;;;;37.08;4.68;;;;;;;0.81;100.00;102883.22;5112322;28;20176;-44
2022/01/15 04:52:47;;;;;;;32.05;4.50;;;;;;;0.75;100.00;102888.28;5112066;28;20169;-43
2022/01/15 04:55:13;;;;;;;22.10;4.20;;;;;;;0.72;100.00;102878.53;5105736;28;20197;-44
2022/01/15 04:57:39;;;;;;;23.67;4.20;;;;;;;0.69;100.00;102893.34;5091475;28;20174;-43
2022/01/15 05:00:09;;;;;;;22.67;4.18;;;;;;;0.75;100.00;102893.56;5091866;28;20178;-43
2022/01/15 05:02:34;;;;;;;20.63;4.47;;;;;;;0.73;100.00;102882.94;5091489;28;20178;-44
2022/01/15 05:05:00;;;;;;;21.58;4.20;;;;;;;0.65;100.00;102888.78;5091431;28;20236;-47
2022/01/15 05:07:25;;;;;;;21.83;4.07;;;;;;;0.68;100.00;102878.31;5090087;28;20318;-43
2022/01/15 05:09:51;;;;;;;18.60;4.50;;;;;;;0.61;100.00;102879.84;5091399;28;20575;-42
2022/01/15 05:12:29;;;;;;;22.42;4.38;;;;;;;0.62;100.00;102892.22;5091689;28;20231;-46
2022/01/15 05:14:55;;;;;;;19.33;5.07;;;;;;;0.60;100.00;102883.34;5091396;28;20238;-44
2022/01/15 05:17:21;;;;;;;25.33;5.13;;;;;;;0.61;100.00;102886.06;5091459;28;20638;-42
2022/01/15 05:19:46;;;;;;;20.17;5.00;;;;;;;0.59;100.00;102892.09;5091564;28;20162;-41
2022/01/15 05:22:12;;;;;;;29.48;5.85;;;;;;;0.47;100.00;102884.63;5091067;28;20190;-43
2022/01/15 05:24:37;;;;;;;24.23;7.22;;;;;;;0.47;100.00;102886.38;5091287;28;20170;-42
2022/01/15 05:27:03;;;;;;;17.80;5.43;;;;;;;0.55;100.00;102883.19;5090841;28;20186;-46
2022/01/15 05:29:28;;;;;;;27.05;6.60;;;;;;;0.48;100.00;102877.63;5091308;28;20250;-42
2022/01/15 05:31:53;;;;;;;27.73;8.02;;;;;;;0.56;100.00;102874.41;5091599;28;20252;-43
2022/01/15 05:34:19;;;;;;;30.90;9.93;;;;;;;0.57;100.00;102876.22;5090927;28;20253;-45
2022/01/15 05:36:45;;;;;;;31.25;8.25;;;;;;;0.59;100.00;102884.16;5090827;28;20205;-42
2022/01/15 05:39:11;;;;;;;32.00;8.25;;;;;;;0.57;100.00;102884.13;5090054;28;20162;-41
2022/01/15 05:41:36;;;;;;;22.75;7.72;;;;;;;0.57;100.00;102872.69;5091422;28;20235;-41
2022/01/15 05:44:02;;;;;;;26.48;6.97;;;;;;;0.57;100.00;102876.22;5091017;28;20239;-45
2022/01/15 05:46:36;;;;;;;25.30;6.05;;;;;;;0.52;100.00;102879.53;5090771;28;20192;-46
2022/01/15 05:49:03;;;;;;;20.88;5.50;;;;;;;0.55;100.00;102871.75;5091023;28;20186;-43
2022/01/15 05:51:30;;;;;;;24.80;4.93;;;;;;;0.50;100.00;102868.03;5090871;28;20512;-42
2022/01/15 05:54:00;;;;;;;17.60;4.43;;;;;;;0.47;100.00;102860.00;5091054;28;20166;-45
2022/01/15 05:56:26;;;;;;;22.90;4.32;;;;;;;0.39;100.00;102870.25;5090439;28;20182;-43
2022/01/15 05:58:52;;;;;;;19.52;4.78;;;;;;;0.37;100.00;102877.22;5091180;28;20162;-42
2022/01/15 06:01:18;;;;;;;12.98;3.75;;;;;;;0.29;100.00;102866.41;5090870;28;20169;-43
2022/01/15 06:03:43;;;;;;;21.38;4.20;;;;;;;0.23;100.00;102866.19;5090429;28;20162;-43
2022/01/15 06:06:08;;;;;;;18.58;4.85;;;;;;;0.17;100.00;102863.31;5090472;28;20198;-44
2022/01/15 06:08:34;;;;;;;29.80;4.30;;;;;;;0.13;100.00;102851.78;5089338;28;20690;-42
2022/01/15 06:10:59;;;;;;;19.52;4.03;;;;;;;0.02;100.00;102850.44;5089185;28;20251;-44
2022/01/15 06:13:25;;;;;;;21.63;4.22;;;;;;;0.11;100.00;102850.81;5090570;28;20173;-44
2022/01/15 06:15:50;;;;;;;20.40;4.57;;;;;;;-0.04;100.00;102843.22;5090476;28;20197;-40
2022/01/15 06:18:16;;;;;;;26.52;4.55;;;;;;;0.04;100.00;102848.78;5090988;28;20161;-42
2022/01/15 06:20:41;;;;;;;19.40;4.38;;;;;;;0.04;100.00;102864.56;5089053;28;20223;-45
2022/01/15 06:23:06;;;;;;;20.52;4.65;;;;;;;0.02;100.00;102855.72;5090811;28;20212;-42
2022/01/15 06:25:32;;;;;;;31.20;4.53;;;;;;;0.04;100.00;102848.78;5090246;28;20213;-43
2022/01/15 06:27:57;;;;;;;23.05;3.60;;;;;;;0.08;100.00;102850.69;5090301;28;20544;-45
2022/01/15 06:30:23;;;;;;;20.80;4.03;;;;;;;0.08;100.00;102837.50;5090662;28;20172;-44
2022/01/15 06:32:49;;;;;;;21.65;3.78;;;;;;;0.14;100.00;102842.13;5107602;28;20180;-42
2022/01/15 06:35:17;;;;;;;22.90;3.97;;;;;;;0.07;100.00;102841.00;5110760;28;20189;-43
2022/01/15 06:37:44;;;;;;;20.77;4.57;;;;;;;0.04;100.00;102835.59;5110603;28;20174;-44
2022/01/15 06:40:10;;;;;;;23.60;4.15;;;;;;;0.04;100.00;102840.88;5111037;28;20678;-41
2022/01/15 06:42:36;;;;;;;16.55;3.85;;;;;;;0.08;100.00;102845.41;5110787;28;20256;-46
2022/01/15 06:45:03;;;;;;;25.88;4.20;;;;;;;0.04;100.00;102847.88;5110856;28;20600;-44
2022/01/15 06:47:29;;;;;;;16.42;4.30;;;;;;;-0.08;100.00;102850.97;5110841;28;20252;-41
2022/01/15 06:49:54;;;;;;;17.33;4.60;;;;;;;-0.06;100.00;102860.72;5111273;28;20276;-42
2022/01/15 06:52:21;;;;;;;21.00;4.13;;;;;;;-0.11;100.00;102866.63;5114874;28;20177;-42
2022/01/15 06:54:47;;;;;;;23.80;4.53;;;;;;;-0.17;100.00;102864.69;5114288;28;20188;-46
2022/01/15 06:57:12;;;;;;;21.13;4.80;;;;;;;-0.14;100.00;102866.53;5114398;27;20201;-43
2022/01/15 06:59:38;;;;;;;19.10;3.83;;;;;;;-0.18;100.00;102860.22;5114605;28;20621;-40
2022/01/15 07:02:05;;;;;;;19.98;4.30;;;;;;;-0.26;100.00;102864.31;5114275;28;20701;-42
2022/01/15 07:04:30;;;;;;;20.27;3.58;;;;;;;-0.23;100.00;102854.78;5114365;28;20462;-42
2022/01/15 07:06:56;;;;;;;18.55;3.15;;;;;;;-0.29;100.00;102853.66;5113203;28;20197;-44
2022/01/15 07:09:21;;;;;;;25.00;5.22;;;;;;;-0.29;100.00;102867.72;5114163;28;20518;-44
2022/01/15 07:11:46;;;;;;;18.20;3.78;;;;;;;-0.20;100.00;102869.81;5114035;28;20169;-42
2022/01/15 07:14:12;;;;;;;18.70;3.47;;;;;;;-0.18;100.00;102860.22;5114033;28;20655;-42
2022/01/15 07:16:37;;;;;;;17.17;3.65;;;;;;;-0.19;100.00;102863.72;5113581;28;20192;-43
2022/01/15 07:19:03;;;;;;;13.48;3.15;;;;;;;-0.17;100.00;102863.78;5113569;28;20631;-41
2022/01/15 07:21:28;;;;;;;12.93;3.03;;;;;;;-0.24;100.00;102855.63;5112537;28;20181;-42
2022/01/15 07:23:54;;;;;;;15.02;3.58;;;;;;;-0.25;100.00;102871.38;5113445;28;20170;-44
2022/01/15 07:26:19;;;;;;;12.60;3.63;;;;;;;-0.33;100.00;102872.81;5113468;28;20190;-42
2022/01/15 07:28:45;;;;;;;20.40;4.03;;;;;;;-0.35;100.00;102863.94;5113356;28;20193;-44
2022/01/15 07:31:10;;;;;;;16.02;3.55;;;;;;;-0.34;100.00;102871.03;5113730;28;20180;-47
2022/01/15 07:33:35;;;;;;;19.00;3.95;;;;;;;-0.38;100.00;102880.53;5113185;27;20535;-47
2022/01/15 07:36:01;;;;;;;14.90;3.45;;;;;;;-0.29;100.00;102872.97;5113156;28;20221;-41
2022/01/15 07:38:26;;;;;;;15.20;3.42;;;;;;;-0.27;100.00;102865.16;5111809;28;20185;-44
2022/01/15 07:40:55;;;;;;;12.88;3.78;;;;;;;-0.26;100.00;102864.31;5112981;28;20170;-47
2022/01/15 07:43:21;;;;;;;22.98;3.33;;;;;;;-0.21;100.00;102865.41;5113121;28;20258;-44
2022/01/15 07:45:47;;;;;;;13.80;3.20;;;;;;;-0.15;100.00;102867.34;5111732;28;20288;-46
2022/01/15 07:48:12;;;;;;;22.60;3.97;;;;;;;-0.18;100.00;102862.88;5100716;28;20735;-41
2022/01/15 07:50:37;;;;;;;14.68;3.00;;;;;;;-0.11;100.00;102874.53;5092222;28;20165;-42
2022/01/15 07:53:03;;;;;;;18.88;3.90;;;;;;;-0.14;100.00;102862.16;5091631;28;20166;-43
2022/01/15 07:55:29;;;;;;;15.70;4.10;;;;;;;-0.11;100.00;102859.66;5091641;28;20200;-45
2022/01/15 07:57:55;;;;;;;19.60;3.80;;;;;;;-0.26;100.00;102853.78;5091405;28;20177;-42
2022/01/15 08:00:21;;;;;;;20.35;3.65;;;;;;;-0.25;100.00;102864.38;5091797;28;20177;-46
2022/01/15 08:02:46;;;;;;;18.20;4.45;;;;;;;-0.30;100.00;102860.66;5090372;28;20296;-43
2022/01/15 08:05:12;;;;;;;18.08;3.80;;;;;;;-0.26;100.00;102845.88;5091737;28;20190;-44
2022/01/15 08:07:40;;;;;;;11.98;3.63;;;;;;;-0.44;100.00;102857.50;5091527;28;20166;-42
2022/01/15 08:10:07;;;;;;;17.00;3.50;;;;;;;-0.43;100.00;102856.66;5091370;28;20237;-47
2022/01/15 08:12:45;;;;;;;13.27;3.47;;;;;;;-0.33;100.00;102859.63;5091816;28;20639;-45
2022/01/15 08:15:10;;;;;;;17.67;3.67;;;;;;;-0.33;100.00;102844.75;5090943;28;20236;-44
2022/01/15 08:17:36;;;;;;;17.83;3.80;;;;;;;-0.23;100.00;102851.25;5097293;28;20178;-45
2022/01/15 08:20:02;;;;;;;20.10;3.33;;;;;;;-0.27;100.00;102841.44;5111591;28;20242;-41
2022/01/15 08:22:27;;;;;;;14.70;3.63;;;;;;;-0.31;100.00;102839.53;5106454;28;20182;-45
2022/01/15 08:24:53;;;;;;;15.13;2.95;;;;;;;-0.23;100.00;102840.72;5091311;28;20583;-43
2022/01/15 08:27:18;;;;;;;14.65;2.83;;;;;;;-0.26;100.00;102841.50;5093359;28;20206;-43
2022/01/15 08:29:44;;;;;;;22.45;3.88;;;;;;;-0.22;100.00;102838.16;5111806;28;20642;-42
2022/01/15 08:32:09;;;;;;;20.02;3.75;;;;;;;-0.21;100.00;102839.06;5111290;28;20740;-43
2022/01/15 08:34:34;;;;;;;23.08;3.92;;;;;;;-0.18;100.00;102839.16;5111947;28;20162;-43
2022/01/15 08:37:00;;;;;;;15.88;3.50;;;;;;;-0.20;100.00;102840.81;5111180;28;20561;-42
2022/01/15 08:39:25;;;;;;;12.63;3.13;;;;;;;-0.03;100.00;102838.84;5111739;28;20167;-41
2022/01/15 08:41:51;;;;;;;22.27;3.53;;;;;;;-0.02;100.00;102835.38;5102849;28;20626;-45
2022/01/15 08:44:22;;;;;;;11.80;2.78;;;;;;;0.06;100.00;102836.53;5111573;28;20157;-42
2022/01/15 08:46:48;;;;;;;16.95;3.72;;;;;;;0.12;100.00;102843.81;5111205;28;20200;-44
2022/01/15 08:49:13;;;;;;;22.33;3.92;;;;;;;0.18;100.00;102841.41;5110302;28;20170;-44
2022/01/15 08:51:41;;;;;;;20.70;3.75;;;;;;;0.26;100.00;102846.94;5112324;28;20730;-44
2022/01/15 08:54:10;;;;;;;22.45;3.47;;;;;;;0.32;100.00;102832.22;5094372;28;20536;-42
2022/01/15 08:56:36;;;;;;;19.58;3.88;;;;;;;0.40;100.00;102832.53;5111924;28;20194;-43
2022/01/15 08:59:03;;;;;;;21.67;4.43;;;;;;;0.52;100.00;102834.69;5111698;28;20705;-43
2022/01/15 09:01:29;;;;;;;23.27;4.50;;;;;;;0.27;100.00;102839.09;5110808;28;20233;-41
2022/01/15 09:03:55;;;;;;;15.75;3.95;;;;;;;0.22;100.00;102832.75;5111631;28;20235;-43
2022/01/15 09:06:21;;;;;;;21.58;4.70;;;;;;;0.29;100.00;102829.50;5110599;28;20232;-42
2022/01/15 09:08:47;;;;;;;16.55;4.30;;;;;;;0.37;100.00;102830.69;5097591;27;20197;-42
2022/01/15 09:11:12;;;;;;;17.65;4.13;;;;;;;0.47;100.00;102828.38;5111323;28;20624;-44
2022/01/15 09:13:38;;;;;;;17.92;4.40;;;;;;;0.65;100.00;102826.38;5110826;28;20780;-44
2022/01/15 09:16:04;;;;;;;19.65;4.47;;;;;;;0.67;100.00;102839.63;5101757;27;20255;-42
2022/01/15 09:18:29;;;;;;;16.83;4.18;;;;;;;0.58;100.00;102827.88;5090039;28;20161;-42
2022/01/15 09:20:55;;;;;;;17.85;4.35;;;;;;;0.55;100.00;102822.53;5108450;28;20188;-44
2022/01/15 09:23:21;;;;;;;22.38;4.80;;;;;;;0.76;100.00;102814.44;5110307;28;20181;-43
2022/01/15 09:25:46;;;;;;;19.17;4.18;;;;;;;0.95;100.00;102820.34;5108109;28;20185;-44
2022/01/15 09:30:56;;;;;;;23.65;5.13;;;;;;;0.87;100.00;102817.44;5105985;28;20644;-43
2022/01/15 09:33:21;;;;;;;16.27;4.65;;;;;;;1.12;100.00;102818.28;5110369;28;20169;-43
2022/01/15 09:35:47;;;;;;;13.38;3.90;;;;;;;1.22;100.00;102820.34;5111036;28;20242;-43
2022/01/15 09:38:15;;;;;;;21.52;5.22;;;;;;;1.42;100.00;102824.53;5110709;28;20618;-42
2022/01/15 09:40:41;;;;;;;15.18;4.32;;;;;;;1.58;100.00;102812.69;5110581;28;20204;-42
2022/01/15 09:43:08;;;;;;;23.70;5.30;;;;;;;1.65;100.00;102812.03;5111189;28;20611;-43
2022/01/15 09:45:35;;;;;;;25.23;4.55;;;;;;;1.87;100.00;102817.06;5110367;28;20722;-43
2022/01/15 09:48:03;;;;;;;23.30;5.38;;;;;;;1.97;100.00;102821.78;5110866;28;20167;-42
2022/01/15 09:50:31;;;;;;;26.02;6.32;;;;;;;2.13;100.00;102820.47;5110422;28;20181;-43
2022/01/15 09:52:58;;;;;;;18.98;4.05;;;;;;;2.27;100.00;102808.53;5110800;28;20165;-42
2022/01/15 09:55:24;;;;;;;27.48;5.82;;;;;;;2.34;100.00;102802.56;5110395;28;20197;-43
2022/01/15 09:57:51;;;;;;;23.27;5.28;;;;;;;2.53;99.95;102801.31;5110746;28;20214;-43
2022/01/15 10:00:18;;;;;;;18.50;4.35;;;;;;;2.80;99.55;102794.94;5110476;28;20207;-42
2022/01/15 10:02:49;;;;;;;28.58;4.40;;;;;;;2.74;98.02;102803.63;5111281;28;20177;-42
2022/01/15 10:05:16;;;;;;;23.13;4.53;;;;;;;2.93;97.58;102804.09;5110604;28;20303;-42
2022/01/15 10:07:54;;;;;;;18.52;4.53;;;;;;;2.97;96.69;102805.94;5105424;28;20570;-42
2022/01/15 10:10:22;;;;;;;18.75;4.28;;;;;;;3.07;96.27;102806.22;5109104;28;20206;-44
2022/01/15 10:12:48;;;;;;;20.42;4.57;;;;;;;3.12;95.11;102797.50;5108065;28;20501;-44
2022/01/15 10:15:15;;;;;;;15.05;4.32;;;;;;;3.28;94.57;102802.31;5109741;28;20205;-44
2022/01/15 10:17:41;;;;;;;19.42;4.82;;;;;;;3.29;93.39;102798.78;5088973;28;20170;-42
2022/01/15 10:20:11;;;;;;;22.05;4.80;;;;;;;3.58;92.99;102793.25;5088842;28;20657;-45
2022/01/15 10:22:47;;;;;;;21.27;4.50;;;;;;;3.48;92.24;102803.66;5089102;28;20182;-43
2022/01/15 10:25:19;;;;;;;20.70;4.30;;;;;;;3.64;91.72;102798.72;5090230;28;20193;-42
2022/01/15 10:27:47;;;;;;;18.20;4.55;;;;;;;3.60;90.78;102789.78;5091515;28;20930;-42
2022/01/15 10:30:18;;;;;;;18.45;3.95;;;;;;;3.64;90.06;102793.41;5092516;28;20213;-43
2022/01/15 10:32:57;;;;;;;19.23;4.30;;;;;;;3.70;89.50;102793.56;5092914;28;20653;-44
2022/01/15 10:35:25;;;;;;;21.48;4.65;;;;;;;3.72;89.08;102791.84;5092434;28;20894;-42
2022/01/15 10:37:54;;;;;;;26.73;4.75;;;;;;;3.53;88.57;102790.50;5093281;28;20182;-44
2022/01/15 10:40:25;;;;;;;20.65;4.20;;;;;;;3.58;88.16;102799.44;5093498;28;20670;-44
2022/01/15 10:42:56;;;;;;;18.55;4.25;;;;;;;3.67;88.06;102796.13;5093876;28;20182;-44
2022/01/15 10:45:24;;;;;;;16.02;3.72;;;;;;;3.73;88.61;102785.66;5094500;28;20189;-44
2022/01/15 10:47:55;;;;;;;23.67;5.50;;;;;;;3.74;87.46;102791.84;5091756;28;20420;-43
2022/01/15 10:50:23;;;;;;;15.48;3.88;;;;;;;3.86;87.18;102789.47;5093472;28;20202;-45
2022/01/15 10:52:50;;;;;;;24.08;5.55;;;;;;;3.86;86.94;102773.56;5092870;28;20647;-42
2022/01/15 10:55:16;;;;;;;23.13;4.90;;;;;;;3.81;86.41;102785.84;5093189;28;20182;-42
2022/01/15 10:58:08;;;;;;;20.98;4.80;;;;;;;3.81;86.53;102780.53;5092459;28;20261;-45
2022/01/15 11:00:36;;;;;;;16.27;3.92;;;;;;;3.86;86.25;102769.13;5092998;28;20269;-42
2022/01/15 11:03:05;;;;;;;14.52;3.97;;;;;;;3.85;86.33;102755.88;5092833;28;20664;-43
2022/01/15 11:05:35;;;;;;;26.23;4.88;;;;;;;3.87;86.16;102770.03;5091246;28;20197;-44
2022/01/15 11:08:27;;;;;;;20.20;4.90;;;;;;;3.89;85.94;102763.91;5067202;28;20182;-46
2022/01/15 11:10:57;;;;;;;19.23;4.05;;;;;;;4.02;85.74;102751.78;5089291;28;20201;-44
2022/01/15 11:13:32;;;;;;;21.52;4.03;;;;;;;4.05;85.16;102754.50;5093231;28;20206;-45
2022/01/15 11:16:00;;;;;;;19.70;3.75;;;;;;;4.00;84.80;102755.25;5091993;28;20566;-44
2022/01/15 11:18:34;;;;;;;24.65;4.30;;;;;;;3.99;84.79;102746.41;5093131;28;20260;-43
2022/01/15 11:21:11;;;;;;;18.55;3.88;;;;;;;3.97;84.36;102741.94;5111943;28;20375;-44
2022/01/15 11:23:38;;;;;;;17.50;3.60;;;;;;;4.03;84.13;102755.34;5104772;28;20696;-44
2022/01/15 11:26:09;;;;;;;18.50;3.25;;;;;;;4.07;84.17;102752.78;5089852;28;20578;-44
2022/01/15 11:28:35;;;;;;;20.52;4.80;;;;;;;4.14;84.03;102743.19;5091828;28;20293;-43
2022/01/15 11:31:13;;;;;;;24.98;4.18;;;;;;;4.17;83.88;102745.00;5091604;28;20650;-44
2022/01/15 11:33:47;;;;;;;22.02;5.47;;;;;;;4.16;83.47;102735.25;5091369;28;20170;-46
2022/01/15 11:36:36;;;;;;;17.67;3.40;;;;;;;4.21;83.29;102725.63;5090942;28;20192;-44
2022/01/15 11:39:05;;;;;;;19.67;3.55;;;;;;;4.22;83.80;102725.66;5091251;28;20201;-44